Terminal Aerodrome Forecast
Issued by NWS

Home | Current Version | Previous Version | Text Only | Print | Product List | Glossary On
Versions: 1 2 3 4 5 6 7 8 9 10 11 12 13 14
000
FTUS45 KFGZ 181700
TAFPRC
TAF
KPRC 181739Z 1818/1918 VRB03KT P6SM FEW040
     FM182000 22006KT P6SM VCSH SCT040
     FM190200 19005KT P6SM SCT040
     FM191400 VRB04KT P6SM FEW030=

USA.gov is the U.S. government's official web portal to all federal, state and local government web resources and services.